Terminal Aerodrome Forecast
Issued by NWS Rapid City, SD

Home | Current Version | Previous Version | Text Only | Print | Product List | Glossary Off
Versions: 1 2 3 4 5 6 7 8 9 10 11 12 13 14 15 16 17 18 19 20 21 22 23 24 25

000
FTUS43 KUNR 231427 AAB
TAFRAP
TAF AMD
KRAP 231427Z 2314/2412 34012KT P6SM -SHRA OVC005
      TEMPO 2314/2317 5SM -DZ BR
     FM231700 35011KT 3SM -SHRA BR OVC004
     FM240000 36007KT 3SM -RA BR OVC004=

USA.gov is the U.S. government's official web portal to all federal, state and local government web resources and services.